sensor_id;sensor_type;location;lat;lon;timestamp;temperature;humidity
60353;DHT22;46196;52.970;6.954;2023-06-24T00:18:36;17.40;99.90
60353;DHT22;46196;52.970;6.954;2023-06-24T00:40:39;16.60;99.90
60353;DHT22;46196;52.970;6.954;2023-06-24T00:43:07;17.10;99.90
60353;DHT22;46196;52.970;6.954;2023-06-24T01:10:07;17.00;99.90
60353;DHT22;46196;52.970;6.954;2023-06-24T01:35:11;16.30;99.90
60353;DHT22;46196;52.970;6.954;2023-06-24T01:39:49;16.20;99.90
60353;DHT22;46196;52.970;6.954;2023-06-24T01:42:17;16.20;99.90
60353;DHT22;46196;52.970;6.954;2023-06-24T01:44:47;16.20;99.90
60353;DHT22;46196;52.970;6.954;2023-06-24T01:47:15;15.50;99.90
60353;DHT22;46196;52.970;6.954;2023-06-24T01:49:45;16.10;99.90
60353;DHT22;46196;52.970;6.954;2023-06-24T01:52:11;16.10;99.90
60353;DHT22;46196;52.970;6.954;2023-06-24T01:54:39;16.10;99.90
60353;DHT22;46196;52.970;6.954;2023-06-24T01:57:08;16.10;99.90
60353;DHT22;46196;52.970;6.954;2023-06-24T01:59:39;16.00;99.90
60353;DHT22;46196;52.970;6.954;2023-06-24T02:02:06;16.00;99.90
60353;DHT22;46196;52.970;6.954;2023-06-24T02:04:34;16.10;99.90
60353;DHT22;46196;52.970;6.954;2023-06-24T02:07:02;16.00;99.90
60353;DHT22;46196;52.970;6.954;2023-06-24T02:09:29;15.90;99.90
60353;DHT22;46196;52.970;6.954;2023-06-24T02:12:02;15.90;99.90
60353;DHT22;46196;52.970;6.954;2023-06-24T02:14:29;15.60;99.90
60353;DHT22;46196;52.970;6.954;2023-06-24T02:16:57;15.40;99.90
60353;DHT22;46196;52.970;6.954;2023-06-24T02:19:25;15.70;99.90
60353;DHT22;46196;52.970;6.954;2023-06-24T02:21:53;15.70;99.90
60353;DHT22;46196;52.970;6.954;2023-06-24T02:24:19;15.80;99.90
60353;DHT22;46196;52.970;6.954;2023-06-24T02:26:46;15.00;99.90
60353;DHT22;46196;52.970;6.954;2023-06-24T02:29:13;16.40;99.90
60353;DHT22;46196;52.970;6.954;2023-06-24T02:31:39;15.70;99.90
60353;DHT22;46196;52.970;6.954;2023-06-24T02:34:05;15.70;99.90
60353;DHT22;46196;52.970;6.954;2023-06-24T02:36:31;15.70;99.90
60353;DHT22;46196;52.970;6.954;2023-06-24T02:38:56;15.70;99.90
60353;DHT22;46196;52.970;6.954;2023-06-24T02:41:22;15.70;99.90
60353;DHT22;46196;52.970;6.954;2023-06-24T02:43:48;15.40;99.90
60353;DHT22;46196;52.970;6.954;2023-06-24T02:46:14;15.60;99.90
60353;DHT22;46196;52.970;6.954;2023-06-24T02:48:41;15.60;99.90
60353;DHT22;46196;52.970;6.954;2023-06-24T02:51:08;15.60;99.90
60353;DHT22;46196;52.970;6.954;2023-06-24T02:53:38;15.60;99.90
60353;DHT22;46196;52.970;6.954;2023-06-24T02:56:05;15.60;99.90
60353;DHT22;46196;52.970;6.954;2023-06-24T02:58:32;15.60;99.90
60353;DHT22;46196;52.970;6.954;2023-06-24T03:01:01;15.60;99.90
60353;DHT22;46196;52.970;6.954;2023-06-24T03:03:29;15.50;99.90
60353;DHT22;46196;52.970;6.954;2023-06-24T03:05:55;15.40;99.90
60353;DHT22;46196;52.970;6.954;2023-06-24T03:08:24;15.40;99.90
60353;DHT22;46196;52.970;6.954;2023-06-24T03:10:56;15.50;99.90
60353;DHT22;46196;52.970;6.954;2023-06-24T03:13:23;15.50;99.90
60353;DHT22;46196;52.970;6.954;2023-06-24T03:15:48;14.20;99.90
60353;DHT22;46196;52.970;6.954;2023-06-24T03:18:15;15.40;99.90
60353;DHT22;46196;52.970;6.954;2023-06-24T03:20:41;15.40;99.90
60353;DHT22;46196;52.970;6.954;2023-06-24T03:23:07;15.40;99.90
60353;DHT22;46196;52.970;6.954;2023-06-24T03:25:33;15.70;99.90
60353;DHT22;46196;52.970;6.954;2023-06-24T03:27:59;15.80;99.90
60353;DHT22;46196;52.970;6.954;2023-06-24T03:30:34;15.30;99.90
60353;DHT22;46196;52.970;6.954;2023-06-24T03:32:59;15.10;99.90
60353;DHT22;46196;52.970;6.954;2023-06-24T03:35:25;16.30;99.90
60353;DHT22;46196;52.970;6.954;2023-06-24T03:37:51;15.30;99.90
60353;DHT22;46196;52.970;6.954;2023-06-24T03:40:17;15.30;99.90
60353;DHT22;46196;52.970;6.954;2023-06-24T03:42:42;15.30;99.90
60353;DHT22;46196;52.970;6.954;2023-06-24T03:45:08;16.20;99.90
60353;DHT22;46196;52.970;6.954;2023-06-24T03:47:34;15.30;99.90
60353;DHT22;46196;52.970;6.954;2023-06-24T03:50:00;15.30;99.90
60353;DHT22;46196;52.970;6.954;2023-06-24T03:52:25;15.30;99.90
60353;DHT22;46196;52.970;6.954;2023-06-24T03:54:51;15.20;99.90
60353;DHT22;46196;52.970;6.954;2023-06-24T03:57:17;15.30;99.90
60353;DHT22;46196;52.970;6.954;2023-06-24T03:59:43;17.00;99.90
60353;DHT22;46196;52.970;6.954;2023-06-24T04:02:08;15.30;99.90
60353;DHT22;46196;52.970;6.954;2023-06-24T04:04:35;15.30;99.90
60353;DHT22;46196;52.970;6.954;2023-06-24T04:07:00;15.30;99.90
60353;DHT22;46196;52.970;6.954;2023-06-24T04:09:26;15.30;99.90
60353;DHT22;46196;52.970;6.954;2023-06-24T04:11:52;15.30;99.90
60353;DHT22;46196;52.970;6.954;2023-06-24T04:14:17;15.40;99.90
60353;DHT22;46196;52.970;6.954;2023-06-24T04:16:43;14.80;99.90
60353;DHT22;46196;52.970;6.954;2023-06-24T04:19:09;15.40;99.90
60353;DHT22;46196;52.970;6.954;2023-06-24T04:21:34;15.40;99.90
60353;DHT22;46196;52.970;6.954;2023-06-24T04:24:00;15.40;99.90
60353;DHT22;46196;52.970;6.954;2023-06-24T04:26:26;15.50;99.90
60353;DHT22;46196;52.970;6.954;2023-06-24T04:28:51;15.50;99.90
60353;DHT22;46196;52.970;6.954;2023-06-24T04:31:17;15.50;99.90
60353;DHT22;46196;52.970;6.954;2023-06-24T04:33:43;15.50;99.90
60353;DHT22;46196;52.970;6.954;2023-06-24T04:36:08;15.80;99.90
60353;DHT22;46196;52.970;6.954;2023-06-24T04:38:34;15.50;99.90
60353;DHT22;46196;52.970;6.954;2023-06-24T04:41:00;15.70;99.90
60353;DHT22;46196;52.970;6.954;2023-06-24T04:43:26;15.60;99.90
60353;DHT22;46196;52.970;6.954;2023-06-24T04:45:54;15.70;99.90
60353;DHT22;46196;52.970;6.954;2023-06-24T04:48:22;15.70;99.90
60353;DHT22;46196;52.970;6.954;2023-06-24T04:50:48;15.10;99.90
60353;DHT22;46196;52.970;6.954;2023-06-24T04:53:14;15.80;99.90
60353;DHT22;46196;52.970;6.954;2023-06-24T04:55:39;15.80;99.90
60353;DHT22;46196;52.970;6.954;2023-06-24T04:58:05;15.10;99.90
60353;DHT22;46196;52.970;6.954;2023-06-24T05:00:31;15.90;99.90
60353;DHT22;46196;52.970;6.954;2023-06-24T05:02:56;15.90;99.90
60353;DHT22;46196;52.970;6.954;2023-06-24T05:05:22;16.00;99.90
60353;DHT22;46196;52.970;6.954;2023-06-24T05:07:48;16.00;99.90
60353;DHT22;46196;52.970;6.954;2023-06-24T05:10:13;17.40;99.90
60353;DHT22;46196;52.970;6.954;2023-06-24T05:12:39;16.10;99.90
60353;DHT22;46196;52.970;6.954;2023-06-24T05:15:05;16.10;99.90
60353;DHT22;46196;52.970;6.954;2023-06-24T05:17:31;16.20;99.90
60353;DHT22;46196;52.970;6.954;2023-06-24T05:19:57;16.20;99.90
60353;DHT22;46196;52.970;6.954;2023-06-24T05:22:23;16.30;99.90
60353;DHT22;46196;52.970;6.954;2023-06-24T05:24:48;16.30;99.90
60353;DHT22;46196;52.970;6.954;2023-06-24T05:27:14;16.40;99.90
60353;DHT22;46196;52.970;6.954;2023-06-24T05:29:39;16.60;99.90
60353;DHT22;46196;52.970;6.954;2023-06-24T05:32:05;16.60;99.90
60353;DHT22;46196;52.970;6.954;2023-06-24T05:34:31;16.60;99.90
60353;DHT22;46196;52.970;6.954;2023-06-24T05:36:57;16.70;99.90
60353;DHT22;46196;52.970;6.954;2023-06-24T05:39:23;16.70;99.90
60353;DHT22;46196;52.970;6.954;2023-06-24T05:41:49;17.60;99.90
60353;DHT22;46196;52.970;6.954;2023-06-24T05:44:15;16.80;99.90
60353;DHT22;46196;52.970;6.954;2023-06-24T05:46:46;16.70;99.90
60353;DHT22;46196;52.970;6.954;2023-06-24T05:49:12;17.00;99.90
60353;DHT22;46196;52.970;6.954;2023-06-24T05:51:37;17.00;99.90
60353;DHT22;46196;52.970;6.954;2023-06-24T05:54:04;17.30;99.90
60353;DHT22;46196;52.970;6.954;2023-06-24T05:56:29;17.60;99.90
60353;DHT22;46196;52.970;6.954;2023-06-24T06:01:50;17.50;99.90
60353;DHT22;46196;52.970;6.954;2023-06-24T06:04:16;17.50;99.90
60353;DHT22;46196;52.970;6.954;2023-06-24T06:06:41;17.60;99.90
60353;DHT22;46196;52.970;6.954;2023-06-24T06:09:07;17.70;99.90
60353;DHT22;46196;52.970;6.954;2023-06-24T06:11:33;17.70;99.90
60353;DHT22;46196;52.970;6.954;2023-06-24T06:13:59;18.00;99.90
60353;DHT22;46196;52.970;6.954;2023-06-24T06:16:25;17.60;99.90
60353;DHT22;46196;52.970;6.954;2023-06-24T06:18:51;18.10;99.90
60353;DHT22;46196;52.970;6.954;2023-06-24T06:21:16;18.20;99.90
60353;DHT22;46196;52.970;6.954;2023-06-24T06:23:42;18.30;99.90
60353;DHT22;46196;52.970;6.954;2023-06-24T06:26:08;18.40;99.90
60353;DHT22;46196;52.970;6.954;2023-06-24T06:28:34;18.40;99.90
60353;DHT22;46196;52.970;6.954;2023-06-24T06:30:59;17.70;99.90
60353;DHT22;46196;52.970;6.954;2023-06-24T06:33:25;18.60;99.90
60353;DHT22;46196;52.970;6.954;2023-06-24T06:35:51;18.90;99.90
60353;DHT22;46196;52.970;6.954;2023-06-24T06:38:16;18.90;99.90
60353;DHT22;46196;52.970;6.954;2023-06-24T06:40:42;19.00;99.90
60353;DHT22;46196;52.970;6.954;2023-06-24T06:43:08;18.90;99.90
60353;DHT22;46196;52.970;6.954;2023-06-24T06:45:33;20.70;99.90
60353;DHT22;46196;52.970;6.954;2023-06-24T06:47:59;19.30;99.90
60353;DHT22;46196;52.970;6.954;2023-06-24T06:50:25;19.40;99.90
60353;DHT22;46196;52.970;6.954;2023-06-24T06:52:50;19.70;99.90
60353;DHT22;46196;52.970;6.954;2023-06-24T06:55:16;19.60;99.90
60353;DHT22;46196;52.970;6.954;2023-06-24T06:57:41;19.70;99.90
60353;DHT22;46196;52.970;6.954;2023-06-24T07:00:08;19.30;99.90
60353;DHT22;46196;52.970;6.954;2023-06-24T07:02:33;19.90;99.90
60353;DHT22;46196;52.970;6.954;2023-06-24T07:05:00;20.00;99.90
60353;DHT22;46196;52.970;6.954;2023-06-24T07:07:26;20.10;99.90
60353;DHT22;46196;52.970;6.954;2023-06-24T07:09:52;20.30;99.90
60353;DHT22;46196;52.970;6.954;2023-06-24T07:12:17;20.40;99.90
60353;DHT22;46196;52.970;6.954;2023-06-24T07:14:43;20.50;99.90
60353;DHT22;46196;52.970;6.954;2023-06-24T07:17:09;20.60;99.90
60353;DHT22;46196;52.970;6.954;2023-06-24T07:19:35;20.70;99.90
60353;DHT22;46196;52.970;6.954;2023-06-24T07:22:00;20.80;99.90
60353;DHT22;46196;52.970;6.954;2023-06-24T07:24:26;22.40;99.90
60353;DHT22;46196;52.970;6.954;2023-06-24T07:26:52;21.50;99.90
60353;DHT22;46196;52.970;6.954;2023-06-24T07:29:17;22.20;99.90
60353;DHT22;46196;52.970;6.954;2023-06-24T07:31:43;23.10;99.90
60353;DHT22;46196;52.970;6.954;2023-06-24T07:34:09;23.90;99.90
60353;DHT22;46196;52.970;6.954;2023-06-24T07:36:35;24.60;99.90
60353;DHT22;46196;52.970;6.954;2023-06-24T07:39:00;25.10;99.90
60353;DHT22;46196;52.970;6.954;2023-06-24T07:41:26;25.60;99.90
60353;DHT22;46196;52.970;6.954;2023-06-24T07:43:52;25.90;99.90
60353;DHT22;46196;52.970;6.954;2023-06-24T07:46:18;26.30;99.90
60353;DHT22;46196;52.970;6.954;2023-06-24T07:48:44;26.70;99.90
60353;DHT22;46196;52.970;6.954;2023-06-24T07:51:09;27.50;97.00
60353;DHT22;46196;52.970;6.954;2023-06-24T07:53:35;27.30;97.80
60353;DHT22;46196;52.970;6.954;2023-06-24T07:56:00;27.40;98.90
60353;DHT22;46196;52.970;6.954;2023-06-24T07:58:26;27.60;97.80
60353;DHT22;46196;52.970;6.954;2023-06-24T08:00:52;27.70;95.50
60353;DHT22;46196;52.970;6.954;2023-06-24T08:03:17;27.80;95.70
60353;DHT22;46196;52.970;6.954;2023-06-24T08:05:43;28.00;94.20
60353;DHT22;46196;52.970;6.954;2023-06-24T08:08:09;28.20;93.80
60353;DHT22;46196;52.970;6.954;2023-06-24T08:10:35;28.10;94.20
60353;DHT22;46196;52.970;6.954;2023-06-24T08:13:00;27.90;93.30
60353;DHT22;46196;52.970;6.954;2023-06-24T08:15:26;27.80;93.40
60353;DHT22;46196;52.970;6.954;2023-06-24T08:17:52;27.50;93.50
60353;DHT22;46196;52.970;6.954;2023-06-24T08:20:20;27.60;93.90
60353;DHT22;46196;52.970;6.954;2023-06-24T08:22:46;27.10;94.40
60353;DHT22;46196;52.970;6.954;2023-06-24T08:25:11;27.00;92.30
60353;DHT22;46196;52.970;6.954;2023-06-24T08:27:37;26.80;93.40
60353;DHT22;46196;52.970;6.954;2023-06-24T08:30:05;26.70;93.50
60353;DHT22;46196;52.970;6.954;2023-06-24T08:32:30;26.50;93.60
60353;DHT22;46196;52.970;6.954;2023-06-24T08:34:56;26.50;93.80
60353;DHT22;46196;52.970;6.954;2023-06-24T08:37:22;26.70;94.40
60353;DHT22;46196;52.970;6.954;2023-06-24T08:39:47;26.80;94.20
60353;DHT22;46196;52.970;6.954;2023-06-24T08:42:13;26.90;93.60
60353;DHT22;46196;52.970;6.954;2023-06-24T08:44:39;27.00;92.60
60353;DHT22;46196;52.970;6.954;2023-06-24T08:47:05;27.10;91.80
60353;DHT22;46196;52.970;6.954;2023-06-24T08:49:34;27.20;92.50
60353;DHT22;46196;52.970;6.954;2023-06-24T08:52:14;27.30;91.20
60353;DHT22;46196;52.970;6.954;2023-06-24T08:54:42;27.10;91.00
60353;DHT22;46196;52.970;6.954;2023-06-24T08:57:10;27.00;91.90
60353;DHT22;46196;52.970;6.954;2023-06-24T08:59:42;27.00;91.10
60353;DHT22;46196;52.970;6.954;2023-06-24T09:02:08;27.00;91.00
60353;DHT22;46196;52.970;6.954;2023-06-24T09:04:34;27.00;90.60
60353;DHT22;46196;52.970;6.954;2023-06-24T09:06:59;27.00;90.20
60353;DHT22;46196;52.970;6.954;2023-06-24T09:09:25;27.00;90.70
60353;DHT22;46196;52.970;6.954;2023-06-24T09:11:57;27.10;87.00
60353;DHT22;46196;52.970;6.954;2023-06-24T09:14:29;27.20;88.70
60353;DHT22;46196;52.970;6.954;2023-06-24T09:16:58;27.50;86.20
60353;DHT22;46196;52.970;6.954;2023-06-24T09:19:27;27.60;84.10
60353;DHT22;46196;52.970;6.954;2023-06-24T09:22:05;27.60;87.50
60353;DHT22;46196;52.970;6.954;2023-06-24T09:24:36;27.70;84.40
60353;DHT22;46196;52.970;6.954;2023-06-24T09:27:03;27.90;85.60
60353;DHT22;46196;52.970;6.954;2023-06-24T09:29:31;28.20;85.20
60353;DHT22;46196;52.970;6.954;2023-06-24T09:31:57;28.40;85.60
60353;DHT22;46196;52.970;6.954;2023-06-24T09:34:26;28.60;81.60
60353;DHT22;46196;52.970;6.954;2023-06-24T09:36:53;28.90;80.10
60353;DHT22;46196;52.970;6.954;2023-06-24T09:39:19;29.10;75.80
60353;DHT22;46196;52.970;6.954;2023-06-24T09:41:50;28.90;76.40
60353;DHT22;46196;52.970;6.954;2023-06-24T09:44:16;29.00;77.00
60353;DHT22;46196;52.970;6.954;2023-06-24T09:46:45;29.00;75.20
60353;DHT22;46196;52.970;6.954;2023-06-24T09:49:11;29.00;75.00
60353;DHT22;46196;52.970;6.954;2023-06-24T09:51:38;29.10;75.20
60353;DHT22;46196;52.970;6.954;2023-06-24T09:54:08;29.00;71.30
60353;DHT22;46196;52.970;6.954;2023-06-24T09:56:40;29.20;73.80
60353;DHT22;46196;52.970;6.954;2023-06-24T09:59:08;29.30;72.90
60353;DHT22;46196;52.970;6.954;2023-06-24T10:01:38;29.50;71.70
60353;DHT22;46196;52.970;6.954;2023-06-24T10:04:06;29.30;72.90
60353;DHT22;46196;52.970;6.954;2023-06-24T10:06:33;29.40;69.40
60353;DHT22;46196;52.970;6.954;2023-06-24T10:08:59;29.30;70.90
60353;DHT22;46196;52.970;6.954;2023-06-24T10:11:25;29.40;71.60
60353;DHT22;46196;52.970;6.954;2023-06-24T10:13:52;29.60;71.00
60353;DHT22;46196;52.970;6.954;2023-06-24T10:16:18;29.60;70.20
60353;DHT22;46196;52.970;6.954;2023-06-24T10:18:45;29.70;70.90
60353;DHT22;46196;52.970;6.954;2023-06-24T10:21:11;29.70;68.10
60353;DHT22;46196;52.970;6.954;2023-06-24T10:26:09;29.60;67.90
60353;DHT22;46196;52.970;6.954;2023-06-24T10:29:12;29.70;67.10
60353;DHT22;46196;52.970;6.954;2023-06-24T10:42:40;28.90;66.60
60353;DHT22;46196;52.970;6.954;2023-06-24T10:47:36;29.20;68.70
60353;DHT22;46196;52.970;6.954;2023-06-24T10:50:02;29.40;68.30
60353;DHT22;46196;52.970;6.954;2023-06-24T10:52:28;29.60;67.70
60353;DHT22;46196;52.970;6.954;2023-06-24T10:54:56;29.70;66.00
60353;DHT22;46196;52.970;6.954;2023-06-24T10:57:27;29.60;65.90
60353;DHT22;46196;52.970;6.954;2023-06-24T10:59:54;29.70;66.20
60353;DHT22;46196;52.970;6.954;2023-06-24T11:02:22;29.60;65.40
60353;DHT22;46196;52.970;6.954;2023-06-24T11:04:59;29.30;65.70
60353;DHT22;46196;52.970;6.954;2023-06-24T11:07:26;29.00;67.20
60353;DHT22;46196;52.970;6.954;2023-06-24T11:09:56;29.10;67.10
60353;DHT22;46196;52.970;6.954;2023-06-24T11:12:27;29.20;65.20
60353;DHT22;46196;52.970;6.954;2023-06-24T11:15:03;29.20;64.50
60353;DHT22;46196;52.970;6.954;2023-06-24T11:17:30;29.00;65.30
60353;DHT22;46196;52.970;6.954;2023-06-24T11:19:56;28.90;65.80
60353;DHT22;46196;52.970;6.954;2023-06-24T11:22:23;28.80;66.40
60353;DHT22;46196;52.970;6.954;2023-06-24T11:24:49;28.70;67.80
60353;DHT22;46196;52.970;6.954;2023-06-24T11:27:15;28.80;66.60
60353;DHT22;46196;52.970;6.954;2023-06-24T11:29:41;28.80;66.60
60353;DHT22;46196;52.970;6.954;2023-06-24T11:32:08;29.00;64.10
60353;DHT22;46196;52.970;6.954;2023-06-24T11:34:36;29.10;63.60
60353;DHT22;46196;52.970;6.954;2023-06-24T11:37:12;29.10;63.70
60353;DHT22;46196;52.970;6.954;2023-06-24T11:39:39;28.90;63.70
60353;DHT22;46196;52.970;6.954;2023-06-24T11:42:08;28.80;63.20
60353;DHT22;46196;52.970;6.954;2023-06-24T11:44:35;28.80;64.10
60353;DHT22;46196;52.970;6.954;2023-06-24T11:47:07;28.80;64.10
60353;DHT22;46196;52.970;6.954;2023-06-24T11:49:54;28.80;63.40
60353;DHT22;46196;52.970;6.954;2023-06-24T11:55:24;29.10;63.20
60353;DHT22;46196;52.970;6.954;2023-06-24T11:57:58;29.30;63.10
60353;DHT22;46196;52.970;6.954;2023-06-24T12:00:27;29.50;62.20
60353;DHT22;46196;52.970;6.954;2023-06-24T12:02:54;29.70;63.00
60353;DHT22;46196;52.970;6.954;2023-06-24T12:05:28;29.80;61.60
60353;DHT22;46196;52.970;6.954;2023-06-24T12:07:58;29.80;61.00
60353;DHT22;46196;52.970;6.954;2023-06-24T12:10:24;29.80;60.50
60353;DHT22;46196;52.970;6.954;2023-06-24T12:12:50;29.80;58.60
60353;DHT22;46196;52.970;6.954;2023-06-24T12:15:15;29.80;59.90
60353;DHT22;46196;52.970;6.954;2023-06-24T12:17:41;29.90;60.80
60353;DHT22;46196;52.970;6.954;2023-06-24T12:20:07;30.10;60.30
60353;DHT22;46196;52.970;6.954;2023-06-24T12:22:33;30.20;57.90
60353;DHT22;46196;52.970;6.954;2023-06-24T12:24:59;30.30;58.60
60353;DHT22;46196;52.970;6.954;2023-06-24T12:27:24;30.50;58.90
60353;DHT22;46196;52.970;6.954;2023-06-24T12:29:50;30.60;57.40
60353;DHT22;46196;52.970;6.954;2023-06-24T12:32:16;30.60;58.00
60353;DHT22;46196;52.970;6.954;2023-06-24T12:34:41;30.60;57.60
60353;DHT22;46196;52.970;6.954;2023-06-24T12:37:07;30.60;57.10
60353;DHT22;46196;52.970;6.954;2023-06-24T12:39:33;30.60;56.50
60353;DHT22;46196;52.970;6.954;2023-06-24T12:41:58;30.50;57.80
60353;DHT22;46196;52.970;6.954;2023-06-24T12:44:24;30.40;57.90
60353;DHT22;46196;52.970;6.954;2023-06-24T12:46:49;30.20;57.90
60353;DHT22;46196;52.970;6.954;2023-06-24T12:49:15;30.10;57.20
60353;DHT22;46196;52.970;6.954;2023-06-24T12:51:41;30.00;57.80
60353;DHT22;46196;52.970;6.954;2023-06-24T12:54:06;30.10;58.80
60353;DHT22;46196;52.970;6.954;2023-06-24T12:56:32;30.20;59.20
60353;DHT22;46196;52.970;6.954;2023-06-24T12:58:58;30.30;59.20
60353;DHT22;46196;52.970;6.954;2023-06-24T13:01:23;30.50;59.40
60353;DHT22;46196;52.970;6.954;2023-06-24T13:03:49;30.70;58.90
60353;DHT22;46196;52.970;6.954;2023-06-24T13:06:14;30.90;59.70
60353;DHT22;46196;52.970;6.954;2023-06-24T13:08:40;31.30;58.90
60353;DHT22;46196;52.970;6.954;2023-06-24T13:11:07;31.50;57.40
60353;DHT22;46196;52.970;6.954;2023-06-24T13:13:32;31.50;56.30
60353;DHT22;46196;52.970;6.954;2023-06-24T13:15:58;31.30;56.10
60353;DHT22;46196;52.970;6.954;2023-06-24T13:18:23;31.20;56.30
60353;DHT22;46196;52.970;6.954;2023-06-24T13:20:49;31.20;56.20
60353;DHT22;46196;52.970;6.954;2023-06-24T13:23:15;31.00;56.10
60353;DHT22;46196;52.970;6.954;2023-06-24T13:25:40;30.70;56.30
60353;DHT22;46196;52.970;6.954;2023-06-24T13:28:06;30.60;57.10
60353;DHT22;46196;52.970;6.954;2023-06-24T13:30:32;30.40;57.60
60353;DHT22;46196;52.970;6.954;2023-06-24T13:32:57;30.20;58.20
60353;DHT22;46196;52.970;6.954;2023-06-24T13:35:23;30.10;58.20
60353;DHT22;46196;52.970;6.954;2023-06-24T13:37:49;30.10;59.10
60353;DHT22;46196;52.970;6.954;2023-06-24T13:40:14;30.20;59.80
60353;DHT22;46196;52.970;6.954;2023-06-24T13:42:40;30.10;59.30
60353;DHT22;46196;52.970;6.954;2023-06-24T13:45:06;30.10;59.50
60353;DHT22;46196;52.970;6.954;2023-06-24T13:47:32;29.90;60.00
60353;DHT22;46196;52.970;6.954;2023-06-24T13:49:57;29.90;60.10
60353;DHT22;46196;52.970;6.954;2023-06-24T13:52:27;29.70;61.30
60353;DHT22;46196;52.970;6.954;2023-06-24T13:54:53;29.50;62.80
60353;DHT22;46196;52.970;6.954;2023-06-24T13:57:19;29.40;62.20
60353;DHT22;46196;52.970;6.954;2023-06-24T13:59:45;29.20;62.30
60353;DHT22;46196;52.970;6.954;2023-06-24T14:02:11;29.10;63.50
60353;DHT22;46196;52.970;6.954;2023-06-24T14:04:38;29.00;65.40
60353;DHT22;46196;52.970;6.954;2023-06-24T14:07:05;29.00;65.80
60353;DHT22;46196;52.970;6.954;2023-06-24T14:09:31;28.90;66.20
60353;DHT22;46196;52.970;6.954;2023-06-24T14:11:57;28.90;67.10
60353;DHT22;46196;52.970;6.954;2023-06-24T14:14:23;28.80;68.00
60353;DHT22;46196;52.970;6.954;2023-06-24T14:16:49;28.90;66.70
60353;DHT22;46196;52.970;6.954;2023-06-24T14:19:14;28.90;66.40
60353;DHT22;46196;52.970;6.954;2023-06-24T14:21:40;28.80;66.50
60353;DHT22;46196;52.970;6.954;2023-06-24T14:24:06;28.80;67.20
60353;DHT22;46196;52.970;6.954;2023-06-24T14:26:33;28.80;67.90
60353;DHT22;46196;52.970;6.954;2023-06-24T14:28:59;28.80;66.70
60353;DHT22;46196;52.970;6.954;2023-06-24T14:31:26;28.80;67.40
60353;DHT22;46196;52.970;6.954;2023-06-24T14:33:52;28.70;67.80
60353;DHT22;46196;52.970;6.954;2023-06-24T14:36:18;28.80;67.00
60353;DHT22;46196;52.970;6.954;2023-06-24T14:38:44;28.70;66.10
60353;DHT22;46196;52.970;6.954;2023-06-24T14:41:10;28.50;65.90
60353;DHT22;46196;52.970;6.954;2023-06-24T14:43:36;28.40;66.30
60353;DHT22;46196;52.970;6.954;2023-06-24T14:46:02;28.30;66.80
60353;DHT22;46196;52.970;6.954;2023-06-24T14:48:27;28.20;67.50
60353;DHT22;46196;52.970;6.954;2023-06-24T14:50:53;28.20;68.20
60353;DHT22;46196;52.970;6.954;2023-06-24T14:53:19;28.20;68.20
60353;DHT22;46196;52.970;6.954;2023-06-24T14:55:45;28.10;66.60
60353;DHT22;46196;52.970;6.954;2023-06-24T14:58:11;28.10;67.50
60353;DHT22;46196;52.970;6.954;2023-06-24T15:00:37;28.10;67.80
60353;DHT22;46196;52.970;6.954;2023-06-24T15:03:03;28.20;68.70
60353;DHT22;46196;52.970;6.954;2023-06-24T15:05:29;28.20;69.80
60353;DHT22;46196;52.970;6.954;2023-06-24T15:07:55;28.20;74.70
60353;DHT22;46196;52.970;6.954;2023-06-24T15:10:20;28.10;78.00
60353;DHT22;46196;52.970;6.954;2023-06-24T15:12:46;28.00;81.50
60353;DHT22;46196;52.970;6.954;2023-06-24T15:15:12;27.90;84.90
60353;DHT22;46196;52.970;6.954;2023-06-24T15:17:37;27.80;88.20
60353;DHT22;46196;52.970;6.954;2023-06-24T15:20:09;27.80;90.30
60353;DHT22;46196;52.970;6.954;2023-06-24T15:22:35;27.80;91.00
60353;DHT22;46196;52.970;6.954;2023-06-24T15:25:01;27.70;91.70
60353;DHT22;46196;52.970;6.954;2023-06-24T15:27:26;27.70;92.80
60353;DHT22;46196;52.970;6.954;2023-06-24T15:29:52;27.70;92.70
60353;DHT22;46196;52.970;6.954;2023-06-24T15:32:18;27.70;93.80
60353;DHT22;46196;52.970;6.954;2023-06-24T15:34:43;27.80;94.10
60353;DHT22;46196;52.970;6.954;2023-06-24T15:37:09;27.80;94.60
60353;DHT22;46196;52.970;6.954;2023-06-24T15:39:35;27.80;95.00
60353;DHT22;46196;52.970;6.954;2023-06-24T15:42:01;27.90;95.20
60353;DHT22;46196;52.970;6.954;2023-06-24T15:44:26;27.90;95.80
60353;DHT22;46196;52.970;6.954;2023-06-24T15:46:52;28.00;95.60
60353;DHT22;46196;52.970;6.954;2023-06-24T15:49:18;27.90;95.10
60353;DHT22;46196;52.970;6.954;2023-06-24T15:51:44;27.90;94.60
60353;DHT22;46196;52.970;6.954;2023-06-24T15:54:10;27.90;94.60
60353;DHT22;46196;52.970;6.954;2023-06-24T15:56:35;27.90;94.40
60353;DHT22;46196;52.970;6.954;2023-06-24T15:59:01;27.90;94.60
60353;DHT22;46196;52.970;6.954;2023-06-24T16:01:27;27.90;94.70
60353;DHT22;46196;52.970;6.954;2023-06-24T16:03:53;28.00;95.10
60353;DHT22;46196;52.970;6.954;2023-06-24T16:06:19;28.00;95.20
60353;DHT22;46196;52.970;6.954;2023-06-24T16:08:45;28.10;95.60
60353;DHT22;46196;52.970;6.954;2023-06-24T16:11:10;28.10;95.60
60353;DHT22;46196;52.970;6.954;2023-06-24T16:13:37;28.10;96.00
60353;DHT22;46196;52.970;6.954;2023-06-24T16:16:03;28.10;96.30
60353;DHT22;46196;52.970;6.954;2023-06-24T16:18:29;28.40;96.00
60353;DHT22;46196;52.970;6.954;2023-06-24T16:20:54;28.70;95.20
60353;DHT22;46196;52.970;6.954;2023-06-24T16:23:20;28.70;94.70
60353;DHT22;46196;52.970;6.954;2023-06-24T16:25:45;28.70;94.30
60353;DHT22;46196;52.970;6.954;2023-06-24T16:28:11;28.60;94.10
60353;DHT22;46196;52.970;6.954;2023-06-24T16:30:37;28.50;93.50
60353;DHT22;46196;52.970;6.954;2023-06-24T16:33:03;28.50;93.10
60353;DHT22;46196;52.970;6.954;2023-06-24T16:35:28;28.40;93.20
60353;DHT22;46196;52.970;6.954;2023-06-24T16:37:54;28.20;93.20
60353;DHT22;46196;52.970;6.954;2023-06-24T16:40:19;28.10;93.30
60353;DHT22;46196;52.970;6.954;2023-06-24T16:42:46;27.90;93.20
60353;DHT22;46196;52.970;6.954;2023-06-24T16:45:11;27.80;93.50
60353;DHT22;46196;52.970;6.954;2023-06-24T16:47:37;27.60;93.50
60353;DHT22;46196;52.970;6.954;2023-06-24T16:50:03;27.40;93.60
60353;DHT22;46196;52.970;6.954;2023-06-24T16:52:29;27.30;93.50
60353;DHT22;46196;52.970;6.954;2023-06-24T16:55:02;27.20;93.70
60353;DHT22;46196;52.970;6.954;2023-06-24T16:57:28;27.10;93.80
60353;DHT22;46196;52.970;6.954;2023-06-24T16:59:53;27.00;93.80
60353;DHT22;46196;52.970;6.954;2023-06-24T17:02:19;27.00;94.00
60353;DHT22;46196;52.970;6.954;2023-06-24T17:04:45;26.90;94.30
60353;DHT22;46196;52.970;6.954;2023-06-24T17:07:10;26.90;94.40
60353;DHT22;46196;52.970;6.954;2023-06-24T17:09:36;26.90;94.80
60353;DHT22;46196;52.970;6.954;2023-06-24T17:12:02;26.80;94.70
60353;DHT22;46196;52.970;6.954;2023-06-24T17:14:28;26.80;94.60